createdAt,value
2023-01-31T00:01:25.440Z,7.00
2023-01-31T00:05:26.592Z,7.10
2023-01-31T00:09:27.745Z,7.10
2023-01-31T00:13:29.210Z,7.10
2023-01-31T00:17:30.363Z,7.20
2023-01-31T00:21:31.935Z,7.10
2023-01-31T00:25:33.062Z,7.10
2023-01-31T00:29:34.772Z,6.90
2023-01-31T00:33:39.163Z,6.90
2023-01-31T00:37:40.326Z,6.90
2023-01-31T00:41:41.596Z,7.00
2023-01-31T00:45:42.868Z,7.00
2023-01-31T00:49:44.053Z,7.00
2023-01-31T00:53:45.846Z,6.90
2023-01-31T00:57:46.896Z,7.00
2023-01-31T01:01:48.090Z,6.90
2023-01-31T01:05:49.217Z,7.00
2023-01-31T01:09:51.801Z,7.00
2023-01-31T01:13:53.558Z,7.00
2023-01-31T01:17:55.108Z,7.10
2023-01-31T01:21:56.263Z,7.10
2023-01-31T01:25:57.441Z,7.00
2023-01-31T01:29:58.615Z,7.00
2023-01-31T01:34:02.575Z,6.90
2023-01-31T01:38:03.701Z,7.00
2023-01-31T01:42:05.307Z,6.90
2023-01-31T01:46:09.684Z,6.80
2023-01-31T01:50:14.638Z,6.80
2023-01-31T01:54:19.574Z,6.70
2023-01-31T01:58:24.653Z,6.60
2023-01-31T02:02:27.318Z,6.60
2023-01-31T02:06:29.407Z,6.60
2023-01-31T02:10:43.201Z,6.60
2023-01-31T02:14:46.451Z,6.60
2023-01-31T02:18:48.300Z,6.60
2023-01-31T02:23:20.224Z,6.60
2023-01-31T02:27:37.035Z,6.60
2023-01-31T02:32:15.884Z,6.30
2023-01-31T02:36:38.918Z,6.40
2023-01-31T02:40:56.248Z,6.40
2023-01-31T02:45:01.114Z,6.30
2023-01-31T02:49:06.063Z,6.20
2023-01-31T02:53:14.075Z,6.20
2023-01-31T02:57:16.541Z,6.20
2023-01-31T03:01:22.388Z,6.10
2023-01-31T03:05:24.935Z,6.10
2023-01-31T03:09:40.033Z,6.00
2023-01-31T03:13:53.861Z,6.10
2023-01-31T03:18:01.986Z,6.00
2023-01-31T03:22:14.753Z,6.00
2023-01-31T03:26:19.274Z,6.00
2023-01-31T03:30:27.189Z,6.00
2023-01-31T03:34:28.639Z,6.10
2023-01-31T03:38:33.601Z,6.10
2023-01-31T03:43:06.215Z,6.00
2023-01-31T03:47:17.927Z,5.90
2023-01-31T03:51:22.604Z,6.00
2023-01-31T03:55:27.663Z,6.00
2023-01-31T03:59:32.625Z,6.00
2023-01-31T04:03:40.176Z,6.10
2023-01-31T04:07:42.404Z,6.00
2023-01-31T04:11:47.369Z,5.90
2023-01-31T04:15:48.548Z,6.00
2023-01-31T04:19:49.674Z,6.00
2023-01-31T04:23:50.821Z,6.00
2023-01-31T04:27:52.088Z,5.90
2023-01-31T04:31:53.306Z,5.90
2023-01-31T04:35:54.513Z,5.80
2023-01-31T04:39:55.633Z,5.80
2023-01-31T04:43:56.990Z,5.80
2023-01-31T04:47:58.240Z,5.70
2023-01-31T04:51:59.397Z,5.70
2023-01-31T04:56:00.550Z,5.60
2023-01-31T05:00:01.725Z,5.60
2023-01-31T05:04:02.988Z,5.60
2023-01-31T05:08:04.381Z,5.50
2023-01-31T05:12:07.403Z,5.50
2023-01-31T05:16:10.435Z,5.50
2023-01-31T05:20:11.601Z,5.50
2023-01-31T05:24:12.654Z,5.40
2023-01-31T05:28:13.815Z,5.40
2023-01-31T05:32:16.974Z,5.40
2023-01-31T05:36:18.122Z,5.40
2023-01-31T05:40:19.298Z,5.30
2023-01-31T05:44:20.843Z,5.30
2023-01-31T05:48:21.989Z,5.20
2023-01-31T05:52:23.138Z,5.20
2023-01-31T05:56:24.409Z,5.30
2023-01-31T06:00:25.939Z,5.20
2023-01-31T06:04:27.097Z,5.10
2023-01-31T06:08:28.259Z,5.00
2023-01-31T06:12:29.394Z,5.00
2023-01-31T06:16:30.885Z,5.00
2023-01-31T06:20:32.101Z,5.00
2023-01-31T06:24:33.361Z,5.00
2023-01-31T06:28:36.165Z,5.00
2023-01-31T06:32:37.362Z,5.00
2023-01-31T06:36:38.529Z,4.90
2023-01-31T06:40:39.734Z,4.90
2023-01-31T06:44:40.895Z,5.00
2023-01-31T06:48:43.092Z,5.10
2023-01-31T06:52:44.284Z,5.10
2023-01-31T06:56:45.362Z,5.10
2023-01-31T07:00:47.104Z,5.20
2023-01-31T07:04:48.328Z,5.20
2023-01-31T07:08:49.553Z,5.30
2023-01-31T07:12:50.722Z,5.40
2023-01-31T07:16:51.857Z,5.20
2023-01-31T07:20:52.923Z,5.30
2023-01-31T07:24:54.365Z,5.30
2023-01-31T07:28:55.509Z,5.40
2023-01-31T07:32:56.662Z,5.30
2023-01-31T07:37:00.521Z,5.20
2023-01-31T07:41:04.082Z,5.10
2023-01-31T07:45:22.126Z,5.10
2023-01-31T07:49:10.603Z,5.10
2023-01-31T07:53:11.761Z,5.30
2023-01-31T07:57:12.805Z,5.30
2023-01-31T08:01:36.807Z,5.40
2023-01-31T08:05:38.066Z,5.50
2023-01-31T08:09:39.326Z,5.70
2023-01-31T08:13:40.601Z,5.70
2023-01-31T08:17:41.794Z,5.40
2023-01-31T08:21:42.905Z,5.20
2023-01-31T08:25:44.497Z,5.20
2023-01-31T08:29:46.208Z,5.30
2023-01-31T08:33:49.813Z,5.20
2023-01-31T08:37:51.081Z,5.20
2023-01-31T08:41:52.360Z,5.00
2023-01-31T08:45:53.476Z,5.10
2023-01-31T08:49:54.652Z,5.10
2023-01-31T08:53:55.889Z,5.00
2023-01-31T08:58:00.076Z,5.10
2023-01-31T09:02:00.281Z,5.10
2023-01-31T09:06:04.371Z,5.20
2023-01-31T09:10:06.001Z,5.20
2023-01-31T09:14:07.080Z,5.20
2023-01-31T09:18:08.243Z,5.30
2023-01-31T09:22:09.416Z,5.50
2023-01-31T09:26:12.256Z,5.70
2023-01-31T09:30:15.164Z,5.70
2023-01-31T09:34:16.249Z,5.80
2023-01-31T09:38:17.310Z,5.80
2023-01-31T09:42:25.264Z,6.30
2023-01-31T09:46:31.965Z,6.60
2023-01-31T09:50:53.771Z,6.80
2023-01-31T09:54:55.029Z,6.60
2023-01-31T09:59:03.008Z,6.60
2023-01-31T10:03:23.402Z,6.40
2023-01-31T10:07:33.989Z,6.20
2023-01-31T10:11:44.997Z,6.10
2023-01-31T10:15:52.465Z,6.10
2023-01-31T10:20:00.479Z,5.80
2023-01-31T10:24:17.097Z,5.90
2023-01-31T10:28:51.744Z,6.20
2023-01-31T10:32:59.749Z,6.00
2023-01-31T10:37:30.904Z,6.00
2023-01-31T10:42:03.088Z,6.10
2023-01-31T10:46:14.672Z,6.10
2023-01-31T10:50:31.965Z,6.00
2023-01-31T10:54:54.768Z,6.00
2023-01-31T10:58:59.140Z,6.20
2023-01-31T11:03:00.266Z,6.20
2023-01-31T11:07:02.625Z,6.50
2023-01-31T11:11:07.516Z,6.70
2023-01-31T11:15:17.718Z,6.70
2023-01-31T11:19:28.760Z,6.70
2023-01-31T11:23:33.035Z,6.90
2023-01-31T11:27:41.062Z,7.00
2023-01-31T11:31:45.972Z,6.90
2023-01-31T11:35:50.882Z,7.10
2023-01-31T11:40:04.960Z,7.30
2023-01-31T11:44:15.448Z,7.20
2023-01-31T11:48:23.493Z,7.30
2023-01-31T11:52:31.392Z,7.40
2023-01-31T11:56:36.406Z,7.50
2023-01-31T12:00:41.520Z,7.50
2023-01-31T12:04:42.858Z,7.60
2023-01-31T12:08:44.322Z,7.80
2023-01-31T12:12:45.674Z,7.80
2023-01-31T12:16:49.385Z,7.70
2023-01-31T12:20:54.672Z,7.60
2023-01-31T12:25:28.343Z,7.40
2023-01-31T12:29:49.135Z,7.50
2023-01-31T12:34:09.013Z,7.30
2023-01-31T12:38:37.419Z,7.20
2023-01-31T12:42:54.333Z,7.40
2023-01-31T12:47:15.697Z,7.30
2023-01-31T12:51:21.073Z,7.20
2023-01-31T12:55:31.777Z,7.30
2023-01-31T12:59:46.018Z,7.20
2023-01-31T13:04:00.470Z,7.10
2023-01-31T13:08:20.217Z,7.20
2023-01-31T13:12:25.353Z,7.20
2023-01-31T13:16:36.551Z,7.00
2023-01-31T13:21:01.612Z,7.20
2023-01-31T13:25:24.879Z,7.00
2023-01-31T13:29:42.430Z,7.00
2023-01-31T13:33:56.526Z,7.00
2023-01-31T13:38:01.783Z,7.10
2023-01-31T13:42:03.364Z,7.10
2023-01-31T13:46:09.073Z,7.30
2023-01-31T13:50:24.152Z,7.30
2023-01-31T13:54:34.988Z,7.40
2023-01-31T13:58:37.417Z,7.40
2023-01-31T14:02:38.920Z,7.50
2023-01-31T14:07:01.443Z,7.40
2023-01-31T14:11:20.868Z,7.50
2023-01-31T14:15:42.950Z,7.50
2023-01-31T14:19:49.907Z,7.50
2023-01-31T14:23:51.087Z,7.40
2023-01-31T14:27:59.050Z,7.50
2023-01-31T14:32:00.352Z,7.30
2023-01-31T14:36:05.385Z,7.20
2023-01-31T14:40:28.207Z,7.00
2023-01-31T14:44:55.917Z,7.10
2023-01-31T14:49:23.917Z,7.00
2023-01-31T14:53:55.062Z,6.90
2023-01-31T14:57:59.318Z,6.90
2023-01-31T15:02:04.312Z,6.90
2023-01-31T15:06:18.389Z,6.90
2023-01-31T15:11:01.573Z,6.80
2023-01-31T15:15:04.753Z,6.70
2023-01-31T15:19:16.636Z,6.70
2023-01-31T15:23:21.567Z,6.70
2023-01-31T15:27:29.902Z,6.70
2023-01-31T15:31:34.737Z,6.80
2023-01-31T15:35:58.705Z,6.90
2023-01-31T15:40:03.570Z,6.90
2023-01-31T15:44:20.345Z,6.80
2023-01-31T15:48:22.317Z,6.80
2023-01-31T15:52:23.456Z,6.90
2023-01-31T15:56:26.418Z,6.80
2023-01-31T16:00:30.762Z,6.80
2023-01-31T16:04:31.940Z,6.80
2023-01-31T16:08:37.105Z,6.70
2023-01-31T16:12:41.386Z,6.80
2023-01-31T16:16:46.406Z,6.70
2023-01-31T16:20:51.006Z,6.80
2023-01-31T16:24:58.304Z,6.80
2023-01-31T16:29:03.062Z,6.80
2023-01-31T16:33:04.214Z,6.70
2023-01-31T16:37:08.797Z,6.70
2023-01-31T16:41:12.321Z,6.80
2023-01-31T16:45:29.690Z,6.90
2023-01-31T16:49:36.429Z,7.00
2023-01-31T16:53:39.483Z,7.00
2023-01-31T16:57:41.031Z,6.90
2023-01-31T17:01:42.525Z,7.00
2023-01-31T17:05:47.249Z,6.90
2023-01-31T17:09:50.517Z,7.00
2023-01-31T17:13:51.761Z,6.90
2023-01-31T17:17:53.043Z,7.00
2023-01-31T17:21:54.492Z,7.00
2023-01-31T17:25:56.305Z,7.00
2023-01-31T17:29:59.265Z,7.10
2023-01-31T17:34:05.288Z,7.20
2023-01-31T17:38:10.656Z,7.30
2023-01-31T17:42:20.311Z,7.30
2023-01-31T17:46:21.480Z,7.30
2023-01-31T17:50:25.359Z,7.30
2023-01-31T17:54:26.610Z,7.20
2023-01-31T17:58:28.032Z,7.20
2023-01-31T18:02:29.205Z,7.30
2023-01-31T18:06:30.457Z,7.30
2023-01-31T18:10:31.609Z,7.20
2023-01-31T18:14:32.916Z,7.20
2023-01-31T18:18:39.801Z,7.20
2023-01-31T18:22:40.933Z,7.10
2023-01-31T18:26:43.861Z,7.10
2023-01-31T18:30:45.084Z,7.20
2023-01-31T18:34:47.413Z,7.20
2023-01-31T18:38:49.466Z,7.30
2023-01-31T18:42:50.629Z,7.40
2023-01-31T18:46:51.817Z,7.40
2023-01-31T18:50:52.959Z,7.30
2023-01-31T18:54:54.141Z,7.40
2023-01-31T18:58:55.314Z,7.40
2023-01-31T19:02:57.850Z,7.40
2023-01-31T19:06:59.004Z,7.50
2023-01-31T19:11:12.123Z,7.60
2023-01-31T19:15:13.301Z,7.40
2023-01-31T19:19:14.750Z,7.30
2023-01-31T19:23:15.891Z,7.50
2023-01-31T19:27:17.088Z,7.60
2023-01-31T19:31:20.935Z,7.70
2023-01-31T19:35:22.446Z,7.60
2023-01-31T19:39:23.928Z,7.70
2023-01-31T19:43:25.085Z,7.70
2023-01-31T19:47:26.152Z,7.70
2023-01-31T19:51:28.135Z,7.70
2023-01-31T19:55:31.893Z,7.80
2023-01-31T19:59:33.038Z,7.70
2023-01-31T20:03:35.013Z,7.70
2023-01-31T20:07:37.626Z,7.70
2023-01-31T20:11:38.902Z,7.80
2023-01-31T20:15:40.078Z,7.80
2023-01-31T20:19:41.247Z,7.90
2023-01-31T20:23:43.247Z,7.90
2023-01-31T20:27:44.439Z,7.90
2023-01-31T20:31:45.629Z,7.90
2023-01-31T20:35:46.912Z,7.80
2023-01-31T20:39:48.066Z,7.80
2023-01-31T20:43:50.009Z,7.90
2023-01-31T20:47:51.204Z,7.90
2023-01-31T20:51:52.439Z,7.90
2023-01-31T20:55:56.204Z,7.90
2023-01-31T20:59:57.407Z,7.90
2023-01-31T21:03:58.694Z,7.90
2023-01-31T21:07:59.852Z,7.90
2023-01-31T21:12:01.128Z,8.00
2023-01-31T21:16:05.249Z,7.80
2023-01-31T21:20:07.954Z,7.80
2023-01-31T21:24:09.095Z,7.90
2023-01-31T21:28:10.286Z,7.90
2023-01-31T21:32:11.599Z,8.00
2023-01-31T21:36:15.269Z,8.00
2023-01-31T21:40:16.750Z,8.10
2023-01-31T21:44:18.055Z,8.10
2023-01-31T21:48:28.307Z,8.20
2023-01-31T21:52:29.565Z,8.10
2023-01-31T21:56:30.814Z,8.10
2023-01-31T22:00:32.017Z,8.20
2023-01-31T22:04:33.179Z,8.00
2023-01-31T22:08:35.190Z,8.00
2023-01-31T22:12:36.368Z,8.00
2023-01-31T22:16:38.447Z,8.00
2023-01-31T22:20:39.657Z,7.90
2023-01-31T22:24:40.999Z,7.90
2023-01-31T22:28:42.538Z,7.90
2023-01-31T22:32:43.803Z,8.10
2023-01-31T22:36:45.060Z,8.10
2023-01-31T22:40:46.644Z,8.10
2023-01-31T22:44:47.827Z,8.10
2023-01-31T22:48:49.906Z,8.10
2023-01-31T22:52:51.132Z,8.10
2023-01-31T22:56:52.307Z,8.00
2023-01-31T23:00:53.564Z,7.90
2023-01-31T23:04:54.639Z,7.90
2023-01-31T23:08:56.083Z,7.90
2023-01-31T23:12:58.741Z,7.80
2023-01-31T23:17:18.344Z,7.80
2023-01-31T23:21:19.502Z,7.70
2023-01-31T23:25:22.556Z,7.60
2023-01-31T23:29:23.627Z,7.60
2023-01-31T23:33:24.763Z,7.70
2023-01-31T23:37:26.032Z,7.70
2023-01-31T23:41:27.163Z,7.70
2023-01-31T23:45:28.357Z,7.70
2023-01-31T23:49:29.492Z,7.70
2023-01-31T23:53:30.648Z,7.80
2023-01-31T23:57:31.866Z,7.80
